createdAt,value
2022-08-19T00:00:09.369Z,23.33
2022-08-19T00:02:37.548Z,24.88
2022-08-19T00:05:19.080Z,25.35
2022-08-19T00:07:46.985Z,25.67
2022-08-19T00:10:16.349Z,23.15
2022-08-19T00:12:46.998Z,25.13
2022-08-19T00:15:17.414Z,24.90
2022-08-19T00:17:45.405Z,25.52
2022-08-19T00:20:17.766Z,25.30
2022-08-19T00:22:47.081Z,22.20
2022-08-19T00:25:15.078Z,24.70
2022-08-19T00:27:43.419Z,25.90
2022-08-19T00:30:13.290Z,25.83
2022-08-19T00:32:41.969Z,27.15
2022-08-19T00:35:14.416Z,25.23
2022-08-19T00:37:46.902Z,26.08
2022-08-19T00:40:15.366Z,26.70
2022-08-19T00:42:42.937Z,27.85
2022-08-19T00:45:13.659Z,26.75
2022-08-19T00:47:41.153Z,27.08
2022-08-19T00:50:10.852Z,27.30
2022-08-19T00:52:45.544Z,26.65
2022-08-19T00:55:25.558Z,27.10
2022-08-19T00:58:28.484Z,24.25
2022-08-19T01:00:56.474Z,26.02
2022-08-19T01:03:24.709Z,26.67
2022-08-19T01:05:55.104Z,25.17
2022-08-19T01:08:22.554Z,24.83
2022-08-19T01:10:56.580Z,28.80
2022-08-19T01:13:27.704Z,26.95
2022-08-19T01:16:05.376Z,26.27
2022-08-19T01:18:36.401Z,27.40
2022-08-19T01:21:23.084Z,25.73
2022-08-19T01:23:50.603Z,26.15
2022-08-19T01:26:23.769Z,27.33
2022-08-19T01:28:54.067Z,25.67
2022-08-19T01:31:27.863Z,27.77
2022-08-19T01:33:58.282Z,27.42
2022-08-19T01:36:28.387Z,25.92
2022-08-19T01:38:56.337Z,26.10
2022-08-19T01:41:24.595Z,28.10
2022-08-19T01:44:03.303Z,27.42
2022-08-19T01:46:42.098Z,28.45
2022-08-19T01:49:10.322Z,27.95
2022-08-19T01:51:40.223Z,26.35
2022-08-19T01:54:12.795Z,28.48
2022-08-19T01:56:40.171Z,27.85
2022-08-19T01:59:15.535Z,28.70
2022-08-19T02:01:43.100Z,25.75
2022-08-19T02:04:10.650Z,25.45
2022-08-19T02:06:37.939Z,29.10
2022-08-19T02:09:07.710Z,29.08
2022-08-19T02:11:36.832Z,29.08
2022-08-19T02:14:06.829Z,29.85
2022-08-19T02:16:36.478Z,28.23
2022-08-19T02:19:04.588Z,27.27
2022-08-19T02:21:32.129Z,28.40
2022-08-19T02:24:00.047Z,27.05
2022-08-19T02:26:28.273Z,27.50
2022-08-19T02:28:55.908Z,28.30
2022-08-19T02:31:25.851Z,28.52
2022-08-19T02:33:56.360Z,29.63
2022-08-19T02:36:25.526Z,28.90
2022-08-19T02:38:54.427Z,29.15
2022-08-19T02:41:27.342Z,27.75
2022-08-19T02:44:29.772Z,28.05
2022-08-19T02:46:48.500Z,30.27
2022-08-19T02:49:17.656Z,29.38
2022-08-19T02:51:47.156Z,28.65
2022-08-19T02:54:15.962Z,28.75
2022-08-19T02:56:45.043Z,28.13
2022-08-19T02:59:13.185Z,29.63
2022-08-19T03:01:42.574Z,25.52
2022-08-19T03:04:13.039Z,28.25
2022-08-19T03:06:42.485Z,27.95
2022-08-19T03:09:10.092Z,28.15
2022-08-19T03:11:38.704Z,28.42
2022-08-19T03:14:08.483Z,26.85
2022-08-19T03:16:45.816Z,30.63
2022-08-19T03:19:13.943Z,29.40
2022-08-19T03:21:43.305Z,29.27
2022-08-19T03:24:10.630Z,28.88
2022-08-19T03:26:43.871Z,27.65
2022-08-19T03:29:13.190Z,32.08
2022-08-19T03:31:51.032Z,31.88
2022-08-19T03:34:29.928Z,30.50
2022-08-19T03:37:03.808Z,32.78
2022-08-19T03:39:31.230Z,31.73
2022-08-19T03:42:32.679Z,33.45
2022-08-19T03:44:48.447Z,34.15
2022-08-19T03:47:16.638Z,34.30
2022-08-19T03:49:44.383Z,36.33
2022-08-19T03:52:12.069Z,33.42
2022-08-19T03:54:40.342Z,34.38
2022-08-19T03:57:08.754Z,34.35
2022-08-19T03:59:39.165Z,33.95
2022-08-19T04:02:12.811Z,33.78
2022-08-19T04:04:42.283Z,34.30
2022-08-19T04:07:11.379Z,34.15
2022-08-19T04:09:38.948Z,33.97
2022-08-19T04:12:06.752Z,33.88
2022-08-19T04:14:35.092Z,34.03
2022-08-19T04:17:05.862Z,35.17
2022-08-19T04:19:35.915Z,34.45
2022-08-19T04:22:03.925Z,34.30
2022-08-19T04:24:31.588Z,34.78
2022-08-19T04:27:01.941Z,32.50
2022-08-19T04:29:31.168Z,33.63
2022-08-19T04:31:59.679Z,32.83
2022-08-19T04:34:30.628Z,32.35
2022-08-19T04:36:59.986Z,32.60
2022-08-19T04:39:48.934Z,33.13
2022-08-19T04:42:37.579Z,31.15
2022-08-19T04:45:14.846Z,30.30
2022-08-19T04:47:47.124Z,28.80
2022-08-19T04:50:15.824Z,30.92
2022-08-19T04:52:46.207Z,30.45
2022-08-19T04:55:14.829Z,30.58
2022-08-19T04:57:42.399Z,31.10
2022-08-19T05:00:10.933Z,31.70
2022-08-19T05:02:39.305Z,29.90
2022-08-19T05:05:07.472Z,30.88
2022-08-19T05:07:35.081Z,29.80
2022-08-19T05:10:03.256Z,31.77
2022-08-19T05:12:30.588Z,31.38
2022-08-19T05:14:58.840Z,31.02
2022-08-19T05:17:30.149Z,29.67
2022-08-19T05:20:18.234Z,29.70
2022-08-19T05:22:48.436Z,29.50
2022-08-19T05:25:20.198Z,31.38
2022-08-19T05:27:48.078Z,32.28
2022-08-19T05:30:16.377Z,30.58
2022-08-19T05:32:43.834Z,30.17
2022-08-19T05:35:12.400Z,30.88
2022-08-19T05:37:41.585Z,29.20
2022-08-19T05:40:10.542Z,29.77
2022-08-19T05:42:38.606Z,28.35
2022-08-19T05:45:06.389Z,30.45
2022-08-19T05:47:33.691Z,29.98
2022-08-19T05:50:05.057Z,28.77
2022-08-19T05:52:33.490Z,28.13
2022-08-19T05:55:00.919Z,27.42
2022-08-19T05:57:30.102Z,26.73
2022-08-19T05:59:59.088Z,27.27
2022-08-19T06:02:27.723Z,28.45
2022-08-19T06:04:55.109Z,25.27
2022-08-19T06:07:22.748Z,28.00
2022-08-19T06:09:59.735Z,27.08
2022-08-19T06:12:32.734Z,27.33
2022-08-19T06:15:05.443Z,23.98
2022-08-19T06:17:32.932Z,23.73
2022-08-19T06:20:00.574Z,22.92
2022-08-19T06:22:29.354Z,24.50
2022-08-19T06:24:57.048Z,24.05
2022-08-19T06:27:24.670Z,27.65
2022-08-19T06:29:51.969Z,27.25
2022-08-19T06:32:22.321Z,25.42
2022-08-19T06:34:49.690Z,26.92
2022-08-19T06:37:17.114Z,27.75
2022-08-19T06:39:46.068Z,20.70
2022-08-19T06:42:14.402Z,20.85
2022-08-19T06:44:48.301Z,22.42
2022-08-19T06:47:23.385Z,24.08
2022-08-19T06:50:00.910Z,21.77
2022-08-19T06:52:29.376Z,21.10
2022-08-19T06:54:59.714Z,21.08
2022-08-19T06:57:28.264Z,22.23
2022-08-19T06:59:57.480Z,20.55
2022-08-19T07:02:27.595Z,17.75
2022-08-19T07:04:55.292Z,15.75
2022-08-19T07:07:23.352Z,15.02
2022-08-19T07:09:59.996Z,14.80
2022-08-19T07:12:38.243Z,17.27
2022-08-19T07:15:07.699Z,18.00
2022-08-19T07:17:38.372Z,18.52
2022-08-19T07:20:12.426Z,18.08
2022-08-19T07:22:42.553Z,17.58
2022-08-19T07:25:11.136Z,17.73
2022-08-19T07:27:39.704Z,17.17
2022-08-19T07:30:11.609Z,16.98
2022-08-19T07:32:40.522Z,16.45
2022-08-19T07:35:08.755Z,17.58
2022-08-19T07:37:38.104Z,16.67
2022-08-19T07:40:08.437Z,16.98
2022-08-19T07:42:36.032Z,17.17
2022-08-19T07:45:04.719Z,16.80
2022-08-19T07:47:47.505Z,17.27
2022-08-19T07:50:21.197Z,17.48
2022-08-19T07:52:50.916Z,17.63
2022-08-19T07:55:42.320Z,17.42
2022-08-19T07:58:09.316Z,17.48
2022-08-19T08:00:37.038Z,18.27
2022-08-19T08:03:04.414Z,17.50
2022-08-19T08:05:50.205Z,18.73
2022-08-19T08:08:35.913Z,17.48
2022-08-19T08:11:03.760Z,17.98
2022-08-19T08:13:36.441Z,17.40
2022-08-19T08:16:10.192Z,18.67
2022-08-19T08:18:43.426Z,17.75
2022-08-19T08:21:18.178Z,17.05
2022-08-19T08:23:45.598Z,18.30
2022-08-19T08:26:14.125Z,19.25
2022-08-19T08:28:47.955Z,19.27
2022-08-19T08:31:16.879Z,19.80
2022-08-19T08:33:44.277Z,19.40
2022-08-19T08:36:14.786Z,19.98
2022-08-19T08:38:46.581Z,25.52
2022-08-19T08:43:47.229Z,25.77
2022-08-19T08:49:25.535Z,25.98
2022-08-19T08:52:05.457Z,25.17
2022-08-19T08:54:40.484Z,27.70
2022-08-19T08:57:42.585Z,26.75
2022-08-19T09:00:17.583Z,27.30
2022-08-19T09:02:46.618Z,27.73
2022-08-19T09:05:22.173Z,27.75
2022-08-19T09:07:59.161Z,26.20
2022-08-19T09:10:44.219Z,27.10
2022-08-19T09:13:37.321Z,26.48
2022-08-19T09:16:10.977Z,26.92
2022-08-19T09:18:53.992Z,25.38
2022-08-19T09:21:30.346Z,25.30
2022-08-19T09:23:59.676Z,25.08
2022-08-19T09:26:48.262Z,24.92
2022-08-19T09:29:15.120Z,24.15
2022-08-19T09:31:42.567Z,24.58
2022-08-19T09:34:21.170Z,23.45
2022-08-19T09:36:54.493Z,25.05
2022-08-19T09:39:23.080Z,24.67
2022-08-19T09:41:51.137Z,23.27
2022-08-19T09:44:19.168Z,21.70
2022-08-19T09:46:48.421Z,22.88
2022-08-19T09:49:18.522Z,24.45
2022-08-19T09:51:51.215Z,24.42
2022-08-19T09:54:23.671Z,26.30
2022-08-19T09:56:56.919Z,24.65
2022-08-19T09:59:24.791Z,23.08
2022-08-19T10:01:52.723Z,24.50
2022-08-19T10:04:22.434Z,22.67
2022-08-19T10:06:53.916Z,23.42
2022-08-19T10:09:26.320Z,24.85
2022-08-19T10:12:02.518Z,24.63
2022-08-19T10:14:30.533Z,25.38
2022-08-19T10:16:59.305Z,24.75
2022-08-19T10:19:27.092Z,24.95
2022-08-19T10:22:00.154Z,23.33
2022-08-19T10:24:29.180Z,23.90
2022-08-19T10:26:59.801Z,24.48
2022-08-19T10:29:32.906Z,24.13
2022-08-19T10:32:09.616Z,22.80
2022-08-19T10:34:48.286Z,21.98
2022-08-19T10:37:23.865Z,23.67
2022-08-19T10:39:54.147Z,24.13
2022-08-19T10:42:21.859Z,23.02
2022-08-19T10:44:49.278Z,22.05
2022-08-19T10:47:25.023Z,23.42
2022-08-19T10:50:13.955Z,25.00
2022-08-19T10:52:48.946Z,23.63
2022-08-19T10:55:38.982Z,23.50
2022-08-19T10:58:16.002Z,23.58
2022-08-19T11:00:44.618Z,22.70
2022-08-19T11:03:12.263Z,23.60
2022-08-19T11:05:40.670Z,21.75
2022-08-19T11:08:22.248Z,22.13
2022-08-19T11:10:58.561Z,22.65
2022-08-19T11:13:26.168Z,21.45
2022-08-19T11:16:08.435Z,22.17
2022-08-19T11:18:41.745Z,20.33
2022-08-19T11:21:13.062Z,20.60
2022-08-19T11:23:40.871Z,20.13
2022-08-19T11:26:08.266Z,21.65
2022-08-19T11:28:35.736Z,20.40
2022-08-19T11:31:04.562Z,19.55
2022-08-19T11:33:33.841Z,22.05
2022-08-19T11:36:02.566Z,20.27
2022-08-19T11:38:30.296Z,21.15
2022-08-19T11:41:04.895Z,20.38
2022-08-19T11:43:37.137Z,18.90
2022-08-19T11:46:11.053Z,19.40
2022-08-19T11:48:39.130Z,20.45
2022-08-19T11:51:11.838Z,21.38
2022-08-19T11:53:40.242Z,21.15
2022-08-19T11:56:09.161Z,20.77
2022-08-19T11:58:37.228Z,21.95
2022-08-19T12:01:12.476Z,20.50
2022-08-19T12:03:40.565Z,21.63
2022-08-19T12:06:09.968Z,20.13
2022-08-19T12:08:37.543Z,20.85
2022-08-19T12:11:05.348Z,20.90
2022-08-19T12:13:32.914Z,19.85
2022-08-19T12:16:00.669Z,21.23
2022-08-19T12:18:28.397Z,20.95
2022-08-19T12:20:56.300Z,21.10
2022-08-19T12:23:24.472Z,19.23
2022-08-19T12:25:52.982Z,21.08
2022-08-19T12:28:22.607Z,20.90
2022-08-19T12:30:52.420Z,21.52
2022-08-19T12:33:25.010Z,20.80
2022-08-19T12:35:53.287Z,19.10
2022-08-19T12:38:20.713Z,21.98
2022-08-19T12:40:49.638Z,22.88
2022-08-19T12:43:16.885Z,21.98
2022-08-19T12:45:44.713Z,22.20
2022-08-19T12:48:33.599Z,21.15
2022-08-19T12:51:08.526Z,21.92
2022-08-19T12:53:39.135Z,23.85
2022-08-19T12:56:12.409Z,22.97
2022-08-19T12:58:49.051Z,24.63
2022-08-19T13:01:23.220Z,25.25
2022-08-19T13:03:53.665Z,25.83
2022-08-19T13:06:21.618Z,24.98
2022-08-19T13:08:49.242Z,26.27
2022-08-19T13:11:19.809Z,26.55
2022-08-19T13:13:50.047Z,29.05
2022-08-19T13:16:18.077Z,28.52
2022-08-19T13:18:52.733Z,27.63
2022-08-19T13:21:22.605Z,28.02
2022-08-19T13:23:52.473Z,28.80
2022-08-19T13:26:20.137Z,29.17
2022-08-19T13:29:08.205Z,26.02
2022-08-19T13:32:00.376Z,28.33
2022-08-19T13:34:34.960Z,29.50
2022-08-19T13:37:04.908Z,28.58
2022-08-19T13:39:34.283Z,28.60
2022-08-19T13:42:03.215Z,31.38
2022-08-19T13:44:31.262Z,28.60
2022-08-19T13:47:08.770Z,28.52
2022-08-19T13:49:37.621Z,29.33
2022-08-19T13:52:06.770Z,27.05
2022-08-19T13:54:34.531Z,26.70
2022-08-19T13:57:02.326Z,26.83
2022-08-19T13:59:29.774Z,26.17
2022-08-19T14:02:01.482Z,25.85
2022-08-19T14:06:56.974Z,26.48
2022-08-19T14:09:24.608Z,27.63
2022-08-19T14:11:52.606Z,28.08
2022-08-19T14:14:20.065Z,29.63
2022-08-19T14:16:47.579Z,29.30
2022-08-19T14:19:15.006Z,25.67
2022-08-19T14:21:42.332Z,26.13
2022-08-19T14:24:10.174Z,21.15
2022-08-19T14:26:37.751Z,20.73
2022-08-19T14:29:05.125Z,20.38
2022-08-19T14:31:32.424Z,19.80
2022-08-19T14:33:59.762Z,17.83
2022-08-19T14:36:27.817Z,14.05
2022-08-19T14:38:55.306Z,20.77
2022-08-19T14:41:24.701Z,15.55
2022-08-19T14:43:53.317Z,15.38
2022-08-19T14:46:29.468Z,15.10
2022-08-19T14:48:57.408Z,15.20
2022-08-19T14:51:30.398Z,16.58
2022-08-19T14:53:58.240Z,19.38
2022-08-19T14:56:28.700Z,17.80
2022-08-19T14:58:58.085Z,16.67
2022-08-19T15:01:25.946Z,17.35
2022-08-19T15:03:56.018Z,16.30
2022-08-19T15:06:25.082Z,18.08
2022-08-19T15:08:52.846Z,20.38
2022-08-19T15:11:23.705Z,20.65
2022-08-19T15:13:51.854Z,22.30
2022-08-19T15:16:20.032Z,22.48
2022-08-19T15:18:50.799Z,21.70
2022-08-19T15:21:26.816Z,21.27
2022-08-19T15:23:56.615Z,22.83
2022-08-19T15:26:24.221Z,23.75
2022-08-19T15:28:51.461Z,23.17
2022-08-19T15:31:25.348Z,26.13
2022-08-19T15:33:58.867Z,29.25
2022-08-19T15:36:27.553Z,26.67
2022-08-19T15:38:56.231Z,26.35
2022-08-19T15:41:29.525Z,24.65
2022-08-19T15:44:04.578Z,23.23
2022-08-19T15:46:34.576Z,20.83
2022-08-19T15:49:02.293Z,19.90
2022-08-19T15:51:31.998Z,20.70
2022-08-19T15:54:00.937Z,19.15
2022-08-19T15:56:57.549Z,18.80
2022-08-19T15:59:47.190Z,19.20
2022-08-19T16:02:37.192Z,19.45
2022-08-19T16:05:29.056Z,19.15
2022-08-19T16:07:57.009Z,19.77
2022-08-19T16:10:27.348Z,20.55
2022-08-19T16:12:58.001Z,20.08
2022-08-19T16:15:28.117Z,20.38
2022-08-19T16:17:57.931Z,18.50
2022-08-19T16:20:30.008Z,19.33
2022-08-19T16:22:59.620Z,19.52
2022-08-19T16:25:30.083Z,20.17
2022-08-19T16:28:07.384Z,20.00
2022-08-19T16:30:39.650Z,21.42
2022-08-19T16:33:10.829Z,20.13
2022-08-19T16:35:42.492Z,19.25
2022-08-19T16:38:12.969Z,18.65
2022-08-19T16:40:46.666Z,19.67
2022-08-19T16:43:15.923Z,19.15
2022-08-19T16:45:50.780Z,19.83
2022-08-19T16:48:19.739Z,19.70
2022-08-19T16:50:50.734Z,19.85
2022-08-19T16:53:22.486Z,19.70
2022-08-19T16:55:57.330Z,18.60
2022-08-19T16:58:34.606Z,19.75
2022-08-19T17:01:07.285Z,17.67
2022-08-19T17:03:38.191Z,18.08
2022-08-19T17:06:21.017Z,18.17
2022-08-19T17:08:57.462Z,18.00
2022-08-19T17:11:30.911Z,18.67
2022-08-19T17:13:59.923Z,12.35
2022-08-19T17:16:33.986Z,11.80
2022-08-19T17:19:08.756Z,11.50
2022-08-19T17:21:40.582Z,11.38
2022-08-19T17:24:10.926Z,10.27
2022-08-19T17:26:39.939Z,10.95
2022-08-19T17:29:15.335Z,11.25
2022-08-19T17:31:45.969Z,13.18
2022-08-19T17:34:14.324Z,12.88
2022-08-19T17:36:47.502Z,12.10
2022-08-19T17:39:18.157Z,11.52
2022-08-19T17:41:50.241Z,12.00
2022-08-19T17:44:19.100Z,11.65
2022-08-19T17:46:49.209Z,12.30
2022-08-19T17:49:20.530Z,12.57
2022-08-19T17:51:49.684Z,13.00
2022-08-19T17:54:19.787Z,13.10
2022-08-19T17:56:48.426Z,13.05
2022-08-19T17:59:19.701Z,11.52
2022-08-19T18:01:54.476Z,12.38
2022-08-19T18:04:25.264Z,12.43
2022-08-19T18:06:59.523Z,13.40
2022-08-19T18:09:41.475Z,14.10
2022-08-19T18:12:24.297Z,12.98
2022-08-19T18:14:53.844Z,13.85
2022-08-19T18:17:24.128Z,13.48
2022-08-19T18:19:59.766Z,12.07
2022-08-19T18:22:41.984Z,12.82
2022-08-19T18:25:27.876Z,12.20
2022-08-19T18:28:01.439Z,12.65
2022-08-19T18:30:35.642Z,9.63
2022-08-19T18:33:14.560Z,12.52
2022-08-19T18:35:52.245Z,10.75
2022-08-19T18:38:41.562Z,10.50
2022-08-19T18:41:29.965Z,9.43
2022-08-19T18:44:16.707Z,9.50
2022-08-19T18:47:03.536Z,8.65
2022-08-19T18:49:33.721Z,10.20
2022-08-19T18:52:06.549Z,8.95
2022-08-19T18:54:37.295Z,7.75
2022-08-19T18:57:09.514Z,7.32
2022-08-19T18:59:43.870Z,7.90
2022-08-19T19:02:15.126Z,7.15
2022-08-19T19:04:43.682Z,7.85
2022-08-19T19:07:18.848Z,7.13
2022-08-19T19:09:51.676Z,6.85
2022-08-19T19:12:20.657Z,6.57
2022-08-19T19:14:50.464Z,6.68
2022-08-19T19:17:23.078Z,7.35
2022-08-19T19:19:51.298Z,6.85
2022-08-19T19:22:24.283Z,5.97
2022-08-19T19:24:59.574Z,7.07
2022-08-19T19:27:27.223Z,7.45
2022-08-19T19:29:55.955Z,7.68
2022-08-19T19:32:28.701Z,7.60
2022-08-19T19:34:56.665Z,7.57
2022-08-19T19:37:33.826Z,7.80
2022-08-19T19:40:03.446Z,7.85
2022-08-19T19:42:32.865Z,8.35
2022-08-19T19:45:03.188Z,8.50
2022-08-19T19:47:31.482Z,8.13
2022-08-19T19:50:16.024Z,8.35
2022-08-19T19:52:46.871Z,7.43
2022-08-19T19:55:18.498Z,7.93
2022-08-19T19:57:48.923Z,7.88
2022-08-19T20:00:19.026Z,7.75
2022-08-19T20:02:50.133Z,6.43
2022-08-19T20:05:20.924Z,7.10
2022-08-19T20:08:09.132Z,7.80
2022-08-19T20:10:41.560Z,8.48
2022-08-19T20:13:11.952Z,8.43
2022-08-19T20:15:42.736Z,8.63
2022-08-19T20:18:14.674Z,8.43
2022-08-19T20:20:44.888Z,9.20
2022-08-19T20:23:12.325Z,12.02
2022-08-19T20:25:40.982Z,9.65
2022-08-19T20:28:11.140Z,9.30
2022-08-19T20:30:46.609Z,10.05
2022-08-19T20:33:15.861Z,10.43
2022-08-19T20:35:45.957Z,10.98
2022-08-19T20:38:14.583Z,11.23
2022-08-19T20:40:42.070Z,12.13
2022-08-19T20:43:13.658Z,11.82
2022-08-19T20:45:41.104Z,12.82
2022-08-19T20:48:12.754Z,13.25
2022-08-19T20:50:40.204Z,13.23
2022-08-19T20:53:17.970Z,13.27
2022-08-19T20:55:49.651Z,13.50
2022-08-19T20:58:19.131Z,12.82
2022-08-19T21:00:48.321Z,13.13
2022-08-19T21:03:21.843Z,12.95
2022-08-19T21:05:49.602Z,12.90
2022-08-19T21:08:21.614Z,12.43
2022-08-19T21:13:23.989Z,12.05
2022-08-19T21:15:52.252Z,12.80
2022-08-19T21:18:21.952Z,13.48
2022-08-19T21:20:51.804Z,11.90
2022-08-19T21:23:28.319Z,11.43
2022-08-19T21:25:58.514Z,11.63
2022-08-19T21:28:35.611Z,11.77
2022-08-19T21:31:07.352Z,12.48
2022-08-19T21:33:35.000Z,11.57
2022-08-19T21:36:05.187Z,12.45
2022-08-19T21:38:34.716Z,11.10
2022-08-19T21:41:06.188Z,12.43
2022-08-19T21:43:36.676Z,12.25
2022-08-19T21:46:07.804Z,12.10
2022-08-19T21:48:36.195Z,12.03
2022-08-19T21:51:04.211Z,13.32
2022-08-19T21:53:34.595Z,13.57
2022-08-19T21:56:07.831Z,14.48
2022-08-19T21:58:37.654Z,14.68
2022-08-19T22:01:07.995Z,14.25
2022-08-19T22:03:39.061Z,14.45
2022-08-19T22:06:07.276Z,15.13
2022-08-19T22:08:34.768Z,15.43
2022-08-19T22:11:04.597Z,15.00
2022-08-19T22:13:40.100Z,15.43
2022-08-19T22:16:08.786Z,14.50
2022-08-19T22:18:36.246Z,15.55
2022-08-19T22:21:08.261Z,17.25
2022-08-19T22:23:38.345Z,16.10
2022-08-19T22:26:06.781Z,15.20
2022-08-19T22:28:34.520Z,15.90
2022-08-19T22:31:03.552Z,14.57
2022-08-19T22:33:32.424Z,15.85
2022-08-19T22:36:00.521Z,15.20
2022-08-19T22:38:27.977Z,16.33
2022-08-19T22:40:56.590Z,16.05
2022-08-19T22:43:32.163Z,15.50
2022-08-19T22:46:00.769Z,15.70
2022-08-19T22:48:36.100Z,14.38
2022-08-19T22:51:23.440Z,14.88
2022-08-19T22:53:54.114Z,15.65
2022-08-19T22:56:21.908Z,15.60
2022-08-19T22:58:50.882Z,14.63
2022-08-19T23:01:29.792Z,14.38
2022-08-19T23:03:59.456Z,15.20
2022-08-19T23:06:33.216Z,14.85
2022-08-19T23:09:04.554Z,14.63
2022-08-19T23:11:38.214Z,14.55
2022-08-19T23:14:11.330Z,16.42
2022-08-19T23:16:39.426Z,16.67
2022-08-19T23:19:09.925Z,16.77
2022-08-19T23:21:42.183Z,16.70
2022-08-19T23:24:10.633Z,16.70
2022-08-19T23:26:39.059Z,18.15
2022-08-19T23:29:25.386Z,17.45
2022-08-19T23:31:55.929Z,16.23
2022-08-19T23:34:24.001Z,17.00
2022-08-19T23:36:51.985Z,17.48
2022-08-19T23:39:20.227Z,17.50
2022-08-19T23:41:48.920Z,16.35
2022-08-19T23:44:17.603Z,16.27
2022-08-19T23:46:54.675Z,16.23
2022-08-19T23:49:24.287Z,15.63
2022-08-19T23:51:52.472Z,16.17
2022-08-19T23:54:20.277Z,15.68
2022-08-19T23:56:48.345Z,14.48
2022-08-19T23:59:16.425Z,14.90
